Fairfield, New York
Current Conditions -  °F | °C
As of 1:53 PM on Friday 21 Nov 2014 (Local Time) from KRME Reporting Station
Broken Clouds Broken Clouds  
Wind Chill: 13°   Ceiling: 3900
Heat Index: 26°   Visibility: 10mi
Dew Point: 14°   Wind: 17mph
Humidity: 60%   Direction: 280°W
Pressure: 30.35"   Gusts: NA
Location:  43.1378°N, 74.9232°W
Report Text: KRME 211853Z 28015KT 10SM BKN039 M03/M10 A3035 RMK AO2 SLP283 T10331100
Loading
Personal Weather Stations






























Interactive Weather Map New forecast layout! Learn more

10-Day Weather Forecast

Advertisements
Track Severe Weather on mobile